createdAt,value
2022-12-08T00:01:31.304Z,21.42
2022-12-08T00:04:03.053Z,19.38
2022-12-08T00:06:52.792Z,21.92
2022-12-08T00:09:24.123Z,19.85
2022-12-08T00:11:57.901Z,28.40
2022-12-08T00:14:31.278Z,25.25
2022-12-08T00:17:00.595Z,24.58
2022-12-08T00:19:28.712Z,25.55
2022-12-08T00:21:56.775Z,23.08
2022-12-08T00:24:26.609Z,21.50
2022-12-08T00:26:54.162Z,22.58
2022-12-08T00:29:22.395Z,24.33
2022-12-08T00:31:50.940Z,27.10
2022-12-08T00:34:18.358Z,27.20
2022-12-08T00:36:46.729Z,24.97
2022-12-08T00:39:15.597Z,24.27
2022-12-08T00:42:01.691Z,30.92
2022-12-08T00:44:29.093Z,30.02
2022-12-08T00:46:56.396Z,27.38
2022-12-08T00:49:24.107Z,26.90
2022-12-08T00:51:51.742Z,32.58
2022-12-08T00:54:20.633Z,48.08
2022-12-08T00:56:48.309Z,88.82
2022-12-08T00:59:16.023Z,111.53
2022-12-08T01:01:45.565Z,121.23
2022-12-08T01:04:16.174Z,56.85
2022-12-08T01:06:44.494Z,50.75
2022-12-08T01:09:14.427Z,40.95
2022-12-08T01:11:42.336Z,27.17
2022-12-08T01:14:10.135Z,31.20
2022-12-08T01:16:38.572Z,28.67
2022-12-08T01:19:06.013Z,26.35
2022-12-08T01:21:33.881Z,30.70
2022-12-08T01:24:01.541Z,25.73
2022-12-08T01:26:29.339Z,28.10
2022-12-08T01:28:57.027Z,27.38
2022-12-08T01:31:24.776Z,26.95
2022-12-08T01:33:52.336Z,25.80
2022-12-08T01:36:24.313Z,25.10
2022-12-08T01:38:52.959Z,23.87
2022-12-08T01:41:23.599Z,23.77
2022-12-08T01:44:11.132Z,28.13
2022-12-08T01:46:43.200Z,29.45
2022-12-08T01:49:13.660Z,28.13
2022-12-08T01:52:01.150Z,30.80
2022-12-08T01:54:36.653Z,25.88
2022-12-08T01:57:23.867Z,27.73
2022-12-08T02:00:14.696Z,26.08
2022-12-08T02:03:07.486Z,29.42
2022-12-08T02:05:39.213Z,31.20
2022-12-08T02:08:09.793Z,28.40
2022-12-08T02:10:41.807Z,26.63
2022-12-08T02:13:15.672Z,29.50
2022-12-08T02:16:03.363Z,26.25
2022-12-08T02:19:30.366Z,25.80
2022-12-08T02:22:09.799Z,28.02
2022-12-08T02:24:46.017Z,30.30
2022-12-08T02:27:40.920Z,35.10
2022-12-08T02:30:33.857Z,30.88
2022-12-08T02:33:04.051Z,31.20
2022-12-08T02:36:16.805Z,30.90
2022-12-08T02:39:02.334Z,30.85
2022-12-08T02:41:54.469Z,28.30
2022-12-08T02:44:35.969Z,29.23
2022-12-08T02:47:14.601Z,29.50
2022-12-08T02:49:42.708Z,30.73
2022-12-08T02:52:13.074Z,28.42
2022-12-08T02:54:50.233Z,31.52
2022-12-08T02:57:55.566Z,35.38
2022-12-08T03:00:25.849Z,27.07
2022-12-08T03:03:14.085Z,25.42
2022-12-08T03:06:06.232Z,27.25
2022-12-08T03:08:42.535Z,28.88
2022-12-08T03:11:15.725Z,25.05
2022-12-08T03:13:46.894Z,26.87
2022-12-08T03:16:21.157Z,26.98
2022-12-08T03:19:11.678Z,28.27
2022-12-08T03:21:41.853Z,24.10
2022-12-08T03:24:11.589Z,26.42
2022-12-08T03:26:47.938Z,26.10
2022-12-08T03:29:15.509Z,22.05
2022-12-08T03:31:55.641Z,24.00
2022-12-08T03:34:26.476Z,22.92
2022-12-08T03:36:54.680Z,23.40
2022-12-08T03:39:22.057Z,23.60
2022-12-08T03:41:49.410Z,25.45
2022-12-08T03:44:16.842Z,27.52
2022-12-08T03:46:44.264Z,26.77
2022-12-08T03:49:11.700Z,25.83
2022-12-08T03:51:39.001Z,24.20
2022-12-08T03:54:06.400Z,27.35
2022-12-08T03:56:38.337Z,25.83
2022-12-08T03:59:08.883Z,26.33
2022-12-08T04:01:36.422Z,25.75
2022-12-08T04:04:03.947Z,23.97
2022-12-08T04:06:31.324Z,29.50
2022-12-08T04:08:58.671Z,23.10
2022-12-08T04:11:25.950Z,22.98
2022-12-08T04:13:53.275Z,23.55
2022-12-08T04:16:25.443Z,20.80
2022-12-08T04:18:52.987Z,19.52
2022-12-08T04:21:20.829Z,21.90
2022-12-08T04:23:48.458Z,21.58
2022-12-08T04:26:17.936Z,19.60
2022-12-08T04:28:45.277Z,20.30
2022-12-08T04:31:12.678Z,18.10
2022-12-08T04:33:40.816Z,23.10
2022-12-08T04:36:09.305Z,19.15
2022-12-08T04:38:36.692Z,20.52
2022-12-08T04:41:04.127Z,19.53
2022-12-08T04:43:31.393Z,17.83
2022-12-08T04:45:58.821Z,17.35
2022-12-08T04:48:26.132Z,17.40
2022-12-08T04:50:53.688Z,16.33
2022-12-08T04:53:21.608Z,18.57
2022-12-08T04:55:49.961Z,21.88
2022-12-08T04:58:19.286Z,20.40
2022-12-08T05:00:47.118Z,19.42
2022-12-08T05:03:16.124Z,18.23
2022-12-08T05:05:44.312Z,18.53
2022-12-08T05:08:13.359Z,20.17
2022-12-08T05:10:40.948Z,20.55
2022-12-08T05:13:08.274Z,21.27
2022-12-08T05:15:36.608Z,22.48
2022-12-08T05:18:06.583Z,19.23
2022-12-08T05:20:34.480Z,19.33
2022-12-08T05:23:02.007Z,19.13
2022-12-08T05:25:29.654Z,21.73
2022-12-08T05:28:17.543Z,17.08
2022-12-08T05:30:44.580Z,18.40
2022-12-08T05:33:11.958Z,17.88
2022-12-08T05:35:39.296Z,17.20
2022-12-08T05:38:07.179Z,17.00
2022-12-08T05:40:34.548Z,16.52
2022-12-08T05:43:01.797Z,20.73
2022-12-08T05:45:29.207Z,19.40
2022-12-08T05:47:57.547Z,18.73
2022-12-08T05:50:25.348Z,20.23
2022-12-08T05:52:55.642Z,20.23
2022-12-08T05:55:23.155Z,17.17
2022-12-08T05:57:50.586Z,20.58
2022-12-08T06:00:18.696Z,19.17
2022-12-08T06:02:46.201Z,18.73
2022-12-08T06:05:13.609Z,21.27
2022-12-08T06:07:41.021Z,23.57
2022-12-08T06:10:08.904Z,19.35
2022-12-08T06:12:36.269Z,17.33
2022-12-08T06:15:03.664Z,20.20
2022-12-08T06:17:30.992Z,17.45
2022-12-08T06:19:58.284Z,17.67
2022-12-08T06:22:27.696Z,17.90
2022-12-08T06:24:55.038Z,19.75
2022-12-08T06:27:22.342Z,18.20
2022-12-08T06:29:49.708Z,20.35
2022-12-08T06:32:19.924Z,17.83
2022-12-08T06:34:50.301Z,18.92
2022-12-08T06:37:17.994Z,19.60
2022-12-08T06:39:45.558Z,19.70
2022-12-08T06:42:31.326Z,17.52
2022-12-08T06:44:59.862Z,20.67
2022-12-08T06:47:27.137Z,18.73
2022-12-08T06:49:54.476Z,19.95
2022-12-08T06:52:21.818Z,18.52
2022-12-08T06:54:49.661Z,20.35
2022-12-08T06:57:17.103Z,17.30
2022-12-08T06:59:45.417Z,16.67
2022-12-08T07:02:16.125Z,19.80
2022-12-08T07:04:44.321Z,18.83
2022-12-08T07:07:11.896Z,22.10
2022-12-08T07:09:39.985Z,17.97
2022-12-08T07:12:07.640Z,19.15
2022-12-08T07:14:35.040Z,18.58
2022-12-08T07:17:02.680Z,24.15
2022-12-08T07:19:30.040Z,27.88
2022-12-08T07:21:57.365Z,49.67
2022-12-08T07:24:24.784Z,61.15
2022-12-08T07:26:52.282Z,44.53
2022-12-08T07:29:24.706Z,24.58
2022-12-08T07:31:53.601Z,21.92
2022-12-08T07:34:21.163Z,18.03
2022-12-08T07:36:49.189Z,21.20
2022-12-08T07:39:16.507Z,18.52
2022-12-08T07:41:43.769Z,19.17
2022-12-08T07:44:11.753Z,18.65
2022-12-08T07:46:39.131Z,19.20
2022-12-08T07:49:06.539Z,18.98
2022-12-08T07:51:33.894Z,19.77
2022-12-08T07:54:01.860Z,20.13
2022-12-08T07:56:29.696Z,19.17
2022-12-08T07:58:57.027Z,21.00
2022-12-08T08:01:30.407Z,18.08
2022-12-08T08:04:02.096Z,25.58
2022-12-08T08:06:29.413Z,21.85
2022-12-08T08:08:57.469Z,21.08
2022-12-08T08:11:25.130Z,18.30
2022-12-08T08:13:53.136Z,21.42
2022-12-08T08:16:21.624Z,21.40
2022-12-08T08:18:51.198Z,23.40
2022-12-08T08:24:07.998Z,21.63
2022-12-08T08:26:35.376Z,27.13
2022-12-08T08:29:02.716Z,24.17
2022-12-08T08:31:30.159Z,21.20
2022-12-08T08:33:58.269Z,21.00
2022-12-08T08:36:25.655Z,18.30
2022-12-08T08:38:52.964Z,17.60
2022-12-08T08:41:20.828Z,17.63
2022-12-08T08:43:48.266Z,16.15
2022-12-08T08:46:15.951Z,15.25
2022-12-08T08:48:43.318Z,15.67
2022-12-08T08:51:12.809Z,18.02
2022-12-08T08:53:40.370Z,21.42
2022-12-08T08:56:15.844Z,13.85
2022-12-08T08:58:43.352Z,17.20
2022-12-08T09:01:16.573Z,17.73
2022-12-08T09:03:44.746Z,16.70
2022-12-08T09:06:13.050Z,19.15
2022-12-08T09:08:41.666Z,24.05
2022-12-08T09:11:09.736Z,19.38
2022-12-08T09:13:37.240Z,15.50
2022-12-08T09:16:06.554Z,17.48
2022-12-08T09:18:36.223Z,15.65
2022-12-08T09:21:05.984Z,16.45
2022-12-08T09:23:35.657Z,18.08
2022-12-08T09:26:05.453Z,19.90
2022-12-08T09:28:33.505Z,23.33
2022-12-08T09:31:01.762Z,24.10
2022-12-08T09:33:29.192Z,25.80
2022-12-08T09:35:56.865Z,25.85
2022-12-08T09:38:26.169Z,24.97
2022-12-08T09:40:55.104Z,26.58
2022-12-08T09:43:57.560Z,30.40
2022-12-08T09:46:29.162Z,32.03
2022-12-08T09:48:59.973Z,27.42
2022-12-08T09:51:33.636Z,34.40
2022-12-08T09:54:10.519Z,26.42
2022-12-08T09:56:39.179Z,28.00
2022-12-08T09:59:09.503Z,22.40
2022-12-08T10:01:42.316Z,19.50
2022-12-08T10:04:37.777Z,21.17
2022-12-08T10:07:17.503Z,16.90
2022-12-08T10:10:04.854Z,17.90
2022-12-08T10:12:47.968Z,13.15
2022-12-08T10:15:36.578Z,15.23
2022-12-08T10:18:18.086Z,17.63
2022-12-08T10:20:49.340Z,26.13
2022-12-08T10:23:33.721Z,26.70
2022-12-08T10:26:13.339Z,19.70
2022-12-08T10:28:44.701Z,25.38
2022-12-08T10:31:26.152Z,48.03
2022-12-08T10:34:23.346Z,44.10
2022-12-08T10:36:59.309Z,49.97
2022-12-08T10:39:44.103Z,44.72
2022-12-08T10:42:14.838Z,42.28
2022-12-08T10:45:04.574Z,39.07
2022-12-08T10:47:38.131Z,42.45
2022-12-08T10:50:10.005Z,38.85
2022-12-08T10:52:41.479Z,38.40
2022-12-08T10:55:15.965Z,47.78
2022-12-08T10:57:43.419Z,44.13
2022-12-08T11:00:20.504Z,35.05
2022-12-08T11:03:05.953Z,41.75
2022-12-08T11:05:35.898Z,45.70
2022-12-08T11:08:05.695Z,48.30
2022-12-08T11:10:43.066Z,42.20
2022-12-08T11:13:20.170Z,41.80
2022-12-08T11:15:47.682Z,25.08
2022-12-08T11:18:29.637Z,23.85
2022-12-08T11:21:07.952Z,29.58
2022-12-08T11:23:37.138Z,27.17
2022-12-08T11:26:12.070Z,20.38
2022-12-08T11:28:40.119Z,21.67
2022-12-08T11:31:40.789Z,26.73
2022-12-08T11:34:18.732Z,19.42
2022-12-08T11:36:47.841Z,19.00
2022-12-08T11:39:15.645Z,22.73
2022-12-08T11:41:46.257Z,23.10
2022-12-08T11:44:38.246Z,22.23
2022-12-08T11:47:08.401Z,16.90
2022-12-08T11:49:42.480Z,17.10
2022-12-08T11:52:23.294Z,20.35
2022-12-08T11:55:18.448Z,18.42
2022-12-08T11:57:46.257Z,20.92
2022-12-08T12:00:17.488Z,17.85
2022-12-08T12:02:50.926Z,18.37
2022-12-08T12:06:13.240Z,18.80
2022-12-08T12:09:09.220Z,19.42
2022-12-08T12:12:16.895Z,20.88
2022-12-08T12:15:03.675Z,20.25
2022-12-08T12:17:49.538Z,16.33
2022-12-08T12:20:51.181Z,13.85
2022-12-08T12:23:25.154Z,20.48
2022-12-08T12:33:18.432Z,15.83
2022-12-08T12:35:48.505Z,18.40
2022-12-08T12:38:43.125Z,14.93
2022-12-08T12:41:13.422Z,18.95
2022-12-08T12:43:41.014Z,20.75
2022-12-08T12:46:23.792Z,25.37
2022-12-08T12:48:52.324Z,22.38
2022-12-08T12:51:48.001Z,21.45
2022-12-08T12:54:22.968Z,17.95
2022-12-08T12:57:05.036Z,18.60
2022-12-08T12:59:56.175Z,22.73
2022-12-08T13:02:26.454Z,22.65
2022-12-08T13:05:09.233Z,25.67
2022-12-08T13:07:44.884Z,21.33
2022-12-08T13:10:23.329Z,26.48
2022-12-08T13:13:05.288Z,26.83
2022-12-08T13:15:51.036Z,25.02
2022-12-08T13:18:38.409Z,20.73
2022-12-08T13:21:18.703Z,23.52
2022-12-08T13:24:10.963Z,24.58
2022-12-08T13:26:49.465Z,48.70
2022-12-08T13:29:23.798Z,58.85
2022-12-08T13:31:53.734Z,63.63
2022-12-08T13:34:23.804Z,67.80
2022-12-08T13:37:09.958Z,71.88
2022-12-08T13:39:40.597Z,74.47
2022-12-08T13:42:36.658Z,62.88
2022-12-08T13:45:39.789Z,62.83
2022-12-08T13:48:25.639Z,60.88
2022-12-08T13:52:59.901Z,54.70
2022-12-08T13:59:34.543Z,62.20
2022-12-08T14:02:18.542Z,62.90
2022-12-08T14:07:40.569Z,67.60
2022-12-08T14:10:14.242Z,70.78
2022-12-08T14:12:46.316Z,66.47
2022-12-08T14:15:16.095Z,78.18
2022-12-08T14:17:54.577Z,66.53
2022-12-08T14:20:46.490Z,75.47
2022-12-08T14:23:23.091Z,73.55
2022-12-08T14:25:50.937Z,67.13
2022-12-08T14:28:18.851Z,71.20
2022-12-08T14:30:49.936Z,69.75
2022-12-08T14:33:17.969Z,68.20
2022-12-08T14:35:55.045Z,68.28
2022-12-08T14:38:25.603Z,68.13
2022-12-08T14:41:08.526Z,70.10
2022-12-08T14:43:36.181Z,61.65
2022-12-08T14:46:21.086Z,66.77
2022-12-08T14:48:48.481Z,66.90
2022-12-08T14:51:24.512Z,71.57
2022-12-08T14:53:56.939Z,74.80
2022-12-08T14:56:26.298Z,79.55
2022-12-08T14:59:14.656Z,90.83
2022-12-08T15:01:43.262Z,58.40
2022-12-08T15:04:13.662Z,45.95
2022-12-08T15:06:55.972Z,39.30
2022-12-08T15:09:45.363Z,32.47
2022-12-08T15:12:13.396Z,35.53
2022-12-08T15:14:56.855Z,34.47
2022-12-08T15:17:46.318Z,31.20
2022-12-08T15:20:40.959Z,34.30
2022-12-08T15:23:33.041Z,30.65
2022-12-08T15:26:01.061Z,29.73
2022-12-08T15:28:30.623Z,27.90
2022-12-08T15:30:59.206Z,30.13
2022-12-08T15:33:27.320Z,36.03
2022-12-08T15:35:54.639Z,33.35
2022-12-08T15:38:29.301Z,38.63
2022-12-08T15:40:58.989Z,37.60
2022-12-08T15:43:28.382Z,28.27
2022-12-08T15:45:59.805Z,41.92
2022-12-08T15:48:31.167Z,39.28
2022-12-08T15:51:00.530Z,30.27
2022-12-08T15:53:28.084Z,29.10
2022-12-08T15:56:26.288Z,28.65
2022-12-08T15:58:59.226Z,23.73
2022-12-08T16:01:27.347Z,29.33
2022-12-08T16:04:59.763Z,35.10
2022-12-08T16:09:38.844Z,33.72
2022-12-08T16:12:57.196Z,30.08
2022-12-08T16:18:14.573Z,47.43
2022-12-08T16:21:07.389Z,59.15
2022-12-08T16:23:46.309Z,67.95
2022-12-08T16:27:01.057Z,61.25
2022-12-08T16:29:10.111Z,62.13
2022-12-08T16:31:37.689Z,67.00
2022-12-08T16:34:05.189Z,59.88
2022-12-08T16:36:32.913Z,77.65
2022-12-08T16:39:00.324Z,66.80
2022-12-08T16:41:46.669Z,65.00
2022-12-08T16:44:14.585Z,60.40
2022-12-08T16:46:42.365Z,60.70
2022-12-08T16:49:10.233Z,53.38
2022-12-08T16:51:37.868Z,57.90
2022-12-08T16:54:05.321Z,48.80
2022-12-08T16:56:33.748Z,48.40
2022-12-08T16:59:02.400Z,45.83
2022-12-08T17:01:30.277Z,57.22
2022-12-08T17:06:45.282Z,58.28
2022-12-08T17:09:12.777Z,69.47
2022-12-08T17:11:43.417Z,65.80
2022-12-08T17:14:13.334Z,58.55
2022-12-08T17:16:40.877Z,72.82
2022-12-08T17:19:08.849Z,67.22
2022-12-08T17:21:36.341Z,67.53
2022-12-08T17:24:04.917Z,72.05
2022-12-08T17:26:32.705Z,61.58
2022-12-08T17:29:02.823Z,67.25
2022-12-08T17:31:32.445Z,82.35
2022-12-08T17:34:02.634Z,66.47
2022-12-08T17:36:30.091Z,69.03
2022-12-08T17:38:59.853Z,76.32
2022-12-08T17:41:30.488Z,74.57
2022-12-08T17:43:58.036Z,74.70
2022-12-08T17:46:25.401Z,65.73
2022-12-08T17:48:53.154Z,69.22
2022-12-08T17:51:20.605Z,70.32
2022-12-08T17:53:48.116Z,59.05
2022-12-08T17:56:20.407Z,60.70
2022-12-08T17:58:52.852Z,65.27
2022-12-08T18:01:23.486Z,65.70
2022-12-08T18:03:51.290Z,65.35
2022-12-08T18:06:18.627Z,71.05
2022-12-08T18:08:46.009Z,60.08
2022-12-08T18:11:16.072Z,69.63
2022-12-08T18:13:43.592Z,75.10
2022-12-08T18:16:11.301Z,87.47
2022-12-08T18:18:38.612Z,75.57
2022-12-08T18:21:06.216Z,69.88
2022-12-08T18:23:33.741Z,71.37
2022-12-08T18:26:01.119Z,74.68
2022-12-08T18:28:28.521Z,78.85
2022-12-08T18:30:55.914Z,77.25
2022-12-08T18:33:23.584Z,80.00
2022-12-08T18:35:51.520Z,78.00
2022-12-08T18:38:19.273Z,76.40
2022-12-08T18:40:46.596Z,83.88
2022-12-08T18:43:14.284Z,74.80
2022-12-08T18:45:41.719Z,70.78
2022-12-08T18:48:09.029Z,72.60
2022-12-08T18:50:36.338Z,74.78
2022-12-08T18:53:03.981Z,71.85
2022-12-08T18:55:31.270Z,73.97
2022-12-08T18:57:58.548Z,69.63
2022-12-08T19:00:25.908Z,62.97
2022-12-08T19:02:53.286Z,67.63
2022-12-08T19:05:20.774Z,61.28
2022-12-08T19:07:48.496Z,55.63
2022-12-08T19:10:15.894Z,47.33
2022-12-08T19:12:43.281Z,44.93
2022-12-08T19:15:11.121Z,46.45
2022-12-08T19:17:38.749Z,42.78
2022-12-08T19:20:07.340Z,39.00
2022-12-08T19:22:34.773Z,45.40
2022-12-08T19:25:02.489Z,35.30
2022-12-08T19:27:29.971Z,44.05
2022-12-08T19:29:57.389Z,40.90
2022-12-08T19:32:24.963Z,45.40
2022-12-08T19:34:53.222Z,56.00
2022-12-08T19:37:21.093Z,48.43
2022-12-08T19:40:08.943Z,49.08
2022-12-08T19:42:54.593Z,55.70
2022-12-08T19:45:23.067Z,65.88
2022-12-08T19:47:50.553Z,69.30
2022-12-08T19:50:36.676Z,61.87
2022-12-08T19:53:13.599Z,54.17
2022-12-08T19:55:43.587Z,47.33
2022-12-08T19:58:11.411Z,49.85
2022-12-08T20:00:40.670Z,46.67
2022-12-08T20:03:08.625Z,43.00
2022-12-08T20:05:36.924Z,38.80
2022-12-08T20:08:04.825Z,41.33
2022-12-08T20:10:36.175Z,38.15
2022-12-08T20:13:22.349Z,35.63
2022-12-08T20:15:50.216Z,36.83
2022-12-08T20:18:17.857Z,40.63
2022-12-08T20:20:46.489Z,39.30
2022-12-08T20:23:15.263Z,35.63
2022-12-08T20:25:44.771Z,36.22
2022-12-08T20:28:12.595Z,35.90
2022-12-08T20:30:41.640Z,36.95
2022-12-08T20:33:13.274Z,39.95
2022-12-08T20:35:44.258Z,38.55
2022-12-08T20:38:12.996Z,38.70
2022-12-08T20:40:44.465Z,40.37
2022-12-08T20:43:11.729Z,45.58
2022-12-08T20:45:39.018Z,39.58
2022-12-08T20:48:06.541Z,47.15
2022-12-08T20:50:33.891Z,41.42
2022-12-08T20:53:01.298Z,37.83
2022-12-08T20:55:29.057Z,36.45
2022-12-08T20:57:56.518Z,43.03
2022-12-08T21:00:26.366Z,36.30
2022-12-08T21:02:57.539Z,39.75
2022-12-08T21:05:25.465Z,39.40
2022-12-08T21:07:53.304Z,36.40
2022-12-08T21:10:20.768Z,33.15
2022-12-08T21:12:48.492Z,35.25
2022-12-08T21:15:15.913Z,33.40
2022-12-08T21:17:43.520Z,33.93
2022-12-08T21:20:11.880Z,37.17
2022-12-08T21:22:40.511Z,39.63
2022-12-08T21:25:08.857Z,40.90
2022-12-08T21:27:38.109Z,45.10
2022-12-08T21:30:07.145Z,39.37
2022-12-08T21:32:34.923Z,35.03
2022-12-08T21:35:02.390Z,41.00
2022-12-08T21:37:30.199Z,74.60
2022-12-08T21:39:57.850Z,60.45
2022-12-08T21:42:43.890Z,52.70
2022-12-08T21:45:13.909Z,41.10
2022-12-08T21:47:41.448Z,39.28
2022-12-08T21:50:10.326Z,36.90
2022-12-08T21:52:43.649Z,34.35
2022-12-08T21:55:12.743Z,34.53
2022-12-08T21:57:40.619Z,37.92
2022-12-08T22:00:11.363Z,32.60
2022-12-08T22:02:39.507Z,30.77
2022-12-08T22:05:09.563Z,27.40
2022-12-08T22:07:38.945Z,29.07
2022-12-08T22:10:07.886Z,32.17
2022-12-08T22:12:37.177Z,31.75
2022-12-08T22:15:06.862Z,34.20
2022-12-08T22:17:42.465Z,26.58
2022-12-08T22:20:15.409Z,29.30
2022-12-08T22:22:43.145Z,29.15
2022-12-08T22:25:12.165Z,27.73
2022-12-08T22:27:41.013Z,28.70
2022-12-08T22:30:09.613Z,35.33
2022-12-08T22:32:37.730Z,31.00
2022-12-08T22:35:05.849Z,39.60
2022-12-08T22:37:33.330Z,37.08
2022-12-08T22:40:00.599Z,40.47
2022-12-08T22:42:28.343Z,35.72
2022-12-08T22:44:55.633Z,33.67
2022-12-08T22:47:23.152Z,34.50
2022-12-08T22:49:50.682Z,35.83
2022-12-08T22:52:18.177Z,38.97
2022-12-08T22:54:45.654Z,40.33
2022-12-08T22:57:13.519Z,39.10
2022-12-08T22:59:41.117Z,47.78
2022-12-08T23:02:09.085Z,74.72
2022-12-08T23:04:41.316Z,155.65
2022-12-08T23:07:09.007Z,209.02
2022-12-08T23:09:36.344Z,199.70
2022-12-08T23:12:05.407Z,127.80
2022-12-08T23:14:32.856Z,178.13
2022-12-08T23:17:02.014Z,121.57
2022-12-08T23:19:29.614Z,170.45
2022-12-08T23:21:56.961Z,67.77
2022-12-08T23:24:24.537Z,60.00
2022-12-08T23:26:51.922Z,65.55
2022-12-08T23:29:19.662Z,58.78
2022-12-08T23:31:47.081Z,62.92
2022-12-08T23:34:14.808Z,55.37
2022-12-08T23:36:42.439Z,47.63
2022-12-08T23:39:11.489Z,41.17
2022-12-08T23:41:38.794Z,38.70
2022-12-08T23:44:07.169Z,26.83
2022-12-08T23:46:34.593Z,26.53
2022-12-08T23:49:02.374Z,27.95
2022-12-08T23:51:30.155Z,23.10
2022-12-08T23:53:57.438Z,19.98
2022-12-08T23:56:30.045Z,19.30
2022-12-08T23:58:57.674Z,15.87
